sensor_id;sensor_type;location;lat;lon;timestamp;P1;durP1;ratioP1;P2;durP2;ratioP2
16401;SDS011;8310;44.626;11.176;2023-08-21T00:02:26;9.70;;;6.47;;
16401;SDS011;8310;44.626;11.176;2023-08-21T00:04:53;8.73;;;6.47;;
16401;SDS011;8310;44.626;11.176;2023-08-21T00:09:48;9.32;;;6.30;;
16401;SDS011;8310;44.626;11.176;2023-08-21T00:12:16;10.45;;;6.82;;
16401;SDS011;8310;44.626;11.176;2023-08-21T00:14:44;10.90;;;6.72;;
16401;SDS011;8310;44.626;11.176;2023-08-21T00:17:13;7.72;;;6.28;;
16401;SDS011;8310;44.626;11.176;2023-08-21T00:19:41;7.63;;;6.82;;
16401;SDS011;8310;44.626;11.176;2023-08-21T00:22:09;9.93;;;6.95;;
16401;SDS011;8310;44.626;11.176;2023-08-21T00:24:36;12.77;;;7.45;;
16401;SDS011;8310;44.626;11.176;2023-08-21T00:27:03;10.98;;;8.40;;
16401;SDS011;8310;44.626;11.176;2023-08-21T00:29:31;9.27;;;6.93;;
16401;SDS011;8310;44.626;11.176;2023-08-21T00:31:59;7.80;;;6.78;;
16401;SDS011;8310;44.626;11.176;2023-08-21T00:34:29;9.68;;;6.53;;
16401;SDS011;8310;44.626;11.176;2023-08-21T00:36:56;10.57;;;6.35;;
16401;SDS011;8310;44.626;11.176;2023-08-21T00:39:24;8.18;;;6.15;;
16401;SDS011;8310;44.626;11.176;2023-08-21T00:41:52;8.93;;;6.43;;
16401;SDS011;8310;44.626;11.176;2023-08-21T00:44:20;10.27;;;7.55;;
16401;SDS011;8310;44.626;11.176;2023-08-21T00:46:47;8.00;;;6.95;;
16401;SDS011;8310;44.626;11.176;2023-08-21T00:49:15;9.15;;;6.60;;
16401;SDS011;8310;44.626;11.176;2023-08-21T00:51:44;8.25;;;6.88;;
16401;SDS011;8310;44.626;11.176;2023-08-21T00:54:13;8.82;;;6.70;;
16401;SDS011;8310;44.626;11.176;2023-08-21T00:56:41;11.60;;;6.65;;
16401;SDS011;8310;44.626;11.176;2023-08-21T01:01:37;7.50;;;6.03;;
16401;SDS011;8310;44.626;11.176;2023-08-21T01:04:05;8.77;;;6.63;;
16401;SDS011;8310;44.626;11.176;2023-08-21T01:06:33;9.80;;;6.63;;
16401;SDS011;8310;44.626;11.176;2023-08-21T01:09:04;8.45;;;6.05;;
16401;SDS011;8310;44.626;11.176;2023-08-21T01:11:41;9.57;;;6.20;;
16401;SDS011;8310;44.626;11.176;2023-08-21T01:14:14;11.80;;;6.72;;
16401;SDS011;8310;44.626;11.176;2023-08-21T01:16:50;9.25;;;6.53;;
16401;SDS011;8310;44.626;11.176;2023-08-21T01:19:24;7.32;;;6.43;;
16401;SDS011;8310;44.626;11.176;2023-08-21T01:21:58;11.48;;;7.28;;
16401;SDS011;8310;44.626;11.176;2023-08-21T01:24:28;9.93;;;6.68;;
16401;SDS011;8310;44.626;11.176;2023-08-21T01:26:56;7.43;;;6.65;;
16401;SDS011;8310;44.626;11.176;2023-08-21T01:29:24;11.90;;;6.53;;
16401;SDS011;8310;44.626;11.176;2023-08-21T01:31:53;7.53;;;6.03;;
16401;SDS011;8310;44.626;11.176;2023-08-21T01:34:25;10.32;;;6.43;;
16401;SDS011;8310;44.626;11.176;2023-08-21T01:36:55;9.20;;;6.38;;
16401;SDS011;8310;44.626;11.176;2023-08-21T01:39:23;9.13;;;6.70;;
16401;SDS011;8310;44.626;11.176;2023-08-21T01:41:53;9.70;;;6.25;;
16401;SDS011;8310;44.626;11.176;2023-08-21T01:44:22;11.57;;;6.60;;
16401;SDS011;8310;44.626;11.176;2023-08-21T01:46:51;9.88;;;6.80;;
16401;SDS011;8310;44.626;11.176;2023-08-21T01:49:19;7.88;;;6.70;;
16401;SDS011;8310;44.626;11.176;2023-08-21T01:51:47;7.57;;;6.40;;
16401;SDS011;8310;44.626;11.176;2023-08-21T01:54:14;7.88;;;6.28;;
16401;SDS011;8310;44.626;11.176;2023-08-21T01:56:42;8.00;;;6.28;;
16401;SDS011;8310;44.626;11.176;2023-08-21T01:59:12;8.95;;;6.90;;
16401;SDS011;8310;44.626;11.176;2023-08-21T02:01:40;10.13;;;6.03;;
16401;SDS011;8310;44.626;11.176;2023-08-21T02:04:07;11.07;;;7.28;;
16401;SDS011;8310;44.626;11.176;2023-08-21T02:06:35;13.82;;;7.30;;
16401;SDS011;8310;44.626;11.176;2023-08-21T02:09:06;10.20;;;7.18;;
16401;SDS011;8310;44.626;11.176;2023-08-21T02:11:34;10.95;;;7.97;;
16401;SDS011;8310;44.626;11.176;2023-08-21T02:14:02;10.35;;;7.82;;
16401;SDS011;8310;44.626;11.176;2023-08-21T02:16:33;14.13;;;8.45;;
16401;SDS011;8310;44.626;11.176;2023-08-21T02:19:01;12.13;;;7.95;;
16401;SDS011;8310;44.626;11.176;2023-08-21T02:21:29;12.82;;;8.05;;
16401;SDS011;8310;44.626;11.176;2023-08-21T02:23:56;10.32;;;8.25;;
16401;SDS011;8310;44.626;11.176;2023-08-21T02:26:24;11.02;;;7.90;;
16401;SDS011;8310;44.626;11.176;2023-08-21T02:28:52;10.65;;;7.72;;
16401;SDS011;8310;44.626;11.176;2023-08-21T02:31:22;9.65;;;8.52;;
16401;SDS011;8310;44.626;11.176;2023-08-21T02:33:52;13.68;;;8.75;;
16401;SDS011;8310;44.626;11.176;2023-08-21T02:36:20;15.23;;;8.20;;
16401;SDS011;8310;44.626;11.176;2023-08-21T02:38:49;8.95;;;7.88;;
16401;SDS011;8310;44.626;11.176;2023-08-21T02:41:17;14.77;;;9.18;;
16401;SDS011;8310;44.626;11.176;2023-08-21T02:43:44;13.02;;;9.98;;
16401;SDS011;8310;44.626;11.176;2023-08-21T02:46:12;13.30;;;9.02;;
16401;SDS011;8310;44.626;11.176;2023-08-21T02:48:39;13.07;;;9.05;;
16401;SDS011;8310;44.626;11.176;2023-08-21T02:51:08;10.52;;;8.60;;
16401;SDS011;8310;44.626;11.176;2023-08-21T02:53:35;11.25;;;10.05;;
16401;SDS011;8310;44.626;11.176;2023-08-21T02:58:31;12.00;;;9.50;;
16401;SDS011;8310;44.626;11.176;2023-08-21T03:00:58;13.43;;;9.50;;
16401;SDS011;8310;44.626;11.176;2023-08-21T03:03:26;19.13;;;10.77;;
16401;SDS011;8310;44.626;11.176;2023-08-21T03:05:53;13.88;;;10.20;;
16401;SDS011;8310;44.626;11.176;2023-08-21T03:08:23;13.82;;;9.65;;
16401;SDS011;8310;44.626;11.176;2023-08-21T03:10:51;13.65;;;10.55;;
16401;SDS011;8310;44.626;11.176;2023-08-21T03:13:20;15.20;;;10.68;;
16401;SDS011;8310;44.626;11.176;2023-08-21T03:15:47;13.95;;;10.52;;
16401;SDS011;8310;44.626;11.176;2023-08-21T03:18:15;12.25;;;10.05;;
16401;SDS011;8310;44.626;11.176;2023-08-21T03:20:44;12.88;;;10.73;;
16401;SDS011;8310;44.626;11.176;2023-08-21T03:23:12;12.18;;;9.82;;
16401;SDS011;8310;44.626;11.176;2023-08-21T03:25:41;12.68;;;10.30;;
16401;SDS011;8310;44.626;11.176;2023-08-21T03:28:08;13.05;;;10.43;;
16401;SDS011;8310;44.626;11.176;2023-08-21T03:30:38;15.25;;;10.80;;
16401;SDS011;8310;44.626;11.176;2023-08-21T03:33:07;12.65;;;10.75;;
16401;SDS011;8310;44.626;11.176;2023-08-21T03:35:34;12.20;;;10.40;;
16401;SDS011;8310;44.626;11.176;2023-08-21T03:38:03;12.25;;;11.00;;
16401;SDS011;8310;44.626;11.176;2023-08-21T03:40:30;13.80;;;10.60;;
16401;SDS011;8310;44.626;11.176;2023-08-21T03:43:00;18.00;;;10.82;;
16401;SDS011;8310;44.626;11.176;2023-08-21T03:45:28;13.77;;;9.85;;
16401;SDS011;8310;44.626;11.176;2023-08-21T03:47:56;18.02;;;10.02;;
16401;SDS011;8310;44.626;11.176;2023-08-21T03:52:51;12.00;;;9.32;;
16401;SDS011;8310;44.626;11.176;2023-08-21T03:55:18;14.60;;;10.60;;
16401;SDS011;8310;44.626;11.176;2023-08-21T03:57:46;11.55;;;10.35;;
16401;SDS011;8310;44.626;11.176;2023-08-21T04:00:16;21.08;;;9.75;;
16401;SDS011;8310;44.626;11.176;2023-08-21T04:02:43;13.35;;;10.52;;
16401;SDS011;8310;44.626;11.176;2023-08-21T04:05:11;10.80;;;9.70;;
16401;SDS011;8310;44.626;11.176;2023-08-21T04:07:39;13.55;;;9.95;;
16401;SDS011;8310;44.626;11.176;2023-08-21T04:10:07;14.98;;;10.07;;
16401;SDS011;8310;44.626;11.176;2023-08-21T04:12:35;14.50;;;10.93;;
16401;SDS011;8310;44.626;11.176;2023-08-21T04:15:03;11.30;;;9.40;;
16401;SDS011;8310;44.626;11.176;2023-08-21T04:17:33;12.10;;;9.55;;
16401;SDS011;8310;44.626;11.176;2023-08-21T04:20:00;10.13;;;8.43;;
16401;SDS011;8310;44.626;11.176;2023-08-21T04:22:28;11.90;;;9.18;;
16401;SDS011;8310;44.626;11.176;2023-08-21T04:24:57;13.18;;;9.65;;
16401;SDS011;8310;44.626;11.176;2023-08-21T04:27:24;10.48;;;9.35;;
16401;SDS011;8310;44.626;11.176;2023-08-21T04:29:52;12.18;;;10.27;;
16401;SDS011;8310;44.626;11.176;2023-08-21T04:32:20;12.32;;;9.15;;
16401;SDS011;8310;44.626;11.176;2023-08-21T04:34:49;12.43;;;8.77;;
16401;SDS011;8310;44.626;11.176;2023-08-21T04:37:17;18.52;;;9.82;;
16401;SDS011;8310;44.626;11.176;2023-08-21T04:39:45;13.85;;;9.75;;
16401;SDS011;8310;44.626;11.176;2023-08-21T04:42:13;11.45;;;9.05;;
16401;SDS011;8310;44.626;11.176;2023-08-21T04:44:40;14.43;;;9.40;;
16401;SDS011;8310;44.626;11.176;2023-08-21T04:47:21;15.77;;;10.30;;
16401;SDS011;8310;44.626;11.176;2023-08-21T04:49:51;14.90;;;10.27;;
16401;SDS011;8310;44.626;11.176;2023-08-21T04:52:19;11.95;;;9.98;;
16401;SDS011;8310;44.626;11.176;2023-08-21T04:54:48;13.88;;;9.98;;
16401;SDS011;8310;44.626;11.176;2023-08-21T04:57:17;14.32;;;12.00;;
16401;SDS011;8310;44.626;11.176;2023-08-21T04:59:46;14.00;;;10.35;;
16401;SDS011;8310;44.626;11.176;2023-08-21T05:02:13;14.25;;;9.77;;
16401;SDS011;8310;44.626;11.176;2023-08-21T05:04:42;12.45;;;9.60;;
16401;SDS011;8310;44.626;11.176;2023-08-21T05:07:11;13.70;;;10.45;;
16401;SDS011;8310;44.626;11.176;2023-08-21T05:09:39;13.50;;;10.80;;
16401;SDS011;8310;44.626;11.176;2023-08-21T05:12:07;13.80;;;10.90;;
16401;SDS011;8310;44.626;11.176;2023-08-21T05:14:34;12.18;;;10.40;;
16401;SDS011;8310;44.626;11.176;2023-08-21T05:17:02;15.90;;;11.02;;
16401;SDS011;8310;44.626;11.176;2023-08-21T05:19:31;14.20;;;10.63;;
16401;SDS011;8310;44.626;11.176;2023-08-21T05:21:58;16.90;;;11.60;;
16401;SDS011;8310;44.626;11.176;2023-08-21T05:24:27;36.88;;;12.30;;
16401;SDS011;8310;44.626;11.176;2023-08-21T05:26:56;19.52;;;10.05;;
16401;SDS011;8310;44.626;11.176;2023-08-21T05:29:24;99.32;;;13.80;;
16401;SDS011;8310;44.626;11.176;2023-08-21T05:31:51;15.70;;;10.68;;
16401;SDS011;8310;44.626;11.176;2023-08-21T05:34:19;12.52;;;9.80;;
16401;SDS011;8310;44.626;11.176;2023-08-21T05:36:47;14.15;;;9.80;;
16401;SDS011;8310;44.626;11.176;2023-08-21T05:39:15;21.10;;;10.75;;
16401;SDS011;8310;44.626;11.176;2023-08-21T05:41:46;16.55;;;10.93;;
16401;SDS011;8310;44.626;11.176;2023-08-21T05:44:14;14.75;;;10.65;;
16401;SDS011;8310;44.626;11.176;2023-08-21T05:46:41;18.63;;;10.65;;
16401;SDS011;8310;44.626;11.176;2023-08-21T05:49:09;18.13;;;10.63;;
16401;SDS011;8310;44.626;11.176;2023-08-21T05:51:36;13.02;;;10.45;;
16401;SDS011;8310;44.626;11.176;2023-08-21T05:54:04;13.93;;;10.07;;
16401;SDS011;8310;44.626;11.176;2023-08-21T05:56:32;14.05;;;10.60;;
16401;SDS011;8310;44.626;11.176;2023-08-21T05:59:01;17.55;;;11.00;;
16401;SDS011;8310;44.626;11.176;2023-08-21T06:01:29;18.83;;;11.43;;
16401;SDS011;8310;44.626;11.176;2023-08-21T06:03:57;16.98;;;10.80;;
16401;SDS011;8310;44.626;11.176;2023-08-21T06:06:25;13.93;;;10.63;;
16401;SDS011;8310;44.626;11.176;2023-08-21T06:08:52;14.95;;;9.52;;
16401;SDS011;8310;44.626;11.176;2023-08-21T06:11:19;18.38;;;10.02;;
16401;SDS011;8310;44.626;11.176;2023-08-21T06:13:49;14.80;;;9.57;;
16401;SDS011;8310;44.626;11.176;2023-08-21T06:16:18;12.52;;;9.27;;
16401;SDS011;8310;44.626;11.176;2023-08-21T06:18:45;14.93;;;9.98;;
16401;SDS011;8310;44.626;11.176;2023-08-21T06:21:13;13.30;;;10.18;;
16401;SDS011;8310;44.626;11.176;2023-08-21T06:23:41;13.88;;;8.95;;
16401;SDS011;8310;44.626;11.176;2023-08-21T06:26:08;12.02;;;8.50;;
16401;SDS011;8310;44.626;11.176;2023-08-21T06:28:36;14.15;;;9.60;;
16401;SDS011;8310;44.626;11.176;2023-08-21T06:31:03;19.08;;;9.50;;
16401;SDS011;8310;44.626;11.176;2023-08-21T06:33:34;13.93;;;9.55;;
16401;SDS011;8310;44.626;11.176;2023-08-21T06:36:01;60.30;;;12.52;;
16401;SDS011;8310;44.626;11.176;2023-08-21T06:38:29;36.65;;;10.02;;
16401;SDS011;8310;44.626;11.176;2023-08-21T06:40:57;28.02;;;9.20;;
16401;SDS011;8310;44.626;11.176;2023-08-21T06:43:24;19.70;;;8.55;;
16401;SDS011;8310;44.626;11.176;2023-08-21T06:45:53;14.45;;;8.80;;
16401;SDS011;8310;44.626;11.176;2023-08-21T06:48:21;13.70;;;7.75;;
16401;SDS011;8310;44.626;11.176;2023-08-21T06:53:18;12.65;;;7.63;;
16401;SDS011;8310;44.626;11.176;2023-08-21T06:55:45;16.90;;;8.63;;
16401;SDS011;8310;44.626;11.176;2023-08-21T06:58:13;14.55;;;8.20;;
16401;SDS011;8310;44.626;11.176;2023-08-21T07:00:40;12.48;;;7.72;;
16401;SDS011;8310;44.626;11.176;2023-08-21T07:03:08;10.32;;;7.70;;
16401;SDS011;8310;44.626;11.176;2023-08-21T07:05:36;11.82;;;8.05;;
16401;SDS011;8310;44.626;11.176;2023-08-21T07:08:06;9.90;;;8.05;;
16401;SDS011;8310;44.626;11.176;2023-08-21T07:10:35;15.82;;;8.05;;
16401;SDS011;8310;44.626;11.176;2023-08-21T07:13:03;11.50;;;8.07;;
16401;SDS011;8310;44.626;11.176;2023-08-21T07:15:32;15.20;;;7.43;;
16401;SDS011;8310;44.626;11.176;2023-08-21T07:17:59;19.83;;;8.18;;
16401;SDS011;8310;44.626;11.176;2023-08-21T07:20:27;12.13;;;8.18;;
16401;SDS011;8310;44.626;11.176;2023-08-21T07:22:55;14.88;;;8.43;;
16401;SDS011;8310;44.626;11.176;2023-08-21T07:25:24;18.10;;;7.95;;
16401;SDS011;8310;44.626;11.176;2023-08-21T07:27:52;23.30;;;7.93;;
16401;SDS011;8310;44.626;11.176;2023-08-21T07:30:20;18.92;;;8.38;;
16401;SDS011;8310;44.626;11.176;2023-08-21T07:32:48;14.45;;;8.10;;
16401;SDS011;8310;44.626;11.176;2023-08-21T07:35:17;14.63;;;8.27;;
16401;SDS011;8310;44.626;11.176;2023-08-21T07:37:45;75.47;;;9.57;;
16401;SDS011;8310;44.626;11.176;2023-08-21T07:40:13;23.73;;;8.48;;
16401;SDS011;8310;44.626;11.176;2023-08-21T07:42:43;15.25;;;7.70;;
16401;SDS011;8310;44.626;11.176;2023-08-21T07:45:14;25.20;;;8.13;;
16401;SDS011;8310;44.626;11.176;2023-08-21T07:47:42;12.77;;;7.95;;
16401;SDS011;8310;44.626;11.176;2023-08-21T07:50:10;28.10;;;8.65;;
16401;SDS011;8310;44.626;11.176;2023-08-21T07:52:39;21.80;;;8.07;;
16401;SDS011;8310;44.626;11.176;2023-08-21T07:55:08;18.17;;;7.93;;
16401;SDS011;8310;44.626;11.176;2023-08-21T07:57:35;16.00;;;9.02;;
16401;SDS011;8310;44.626;11.176;2023-08-21T08:00:05;19.17;;;7.97;;
16401;SDS011;8310;44.626;11.176;2023-08-21T08:02:34;22.55;;;8.68;;
16401;SDS011;8310;44.626;11.176;2023-08-21T08:05:01;16.67;;;7.95;;
16401;SDS011;8310;44.626;11.176;2023-08-21T08:07:30;12.32;;;7.90;;
16401;SDS011;8310;44.626;11.176;2023-08-21T08:09:58;13.05;;;7.30;;
16401;SDS011;8310;44.626;11.176;2023-08-21T08:12:28;24.63;;;7.95;;
16401;SDS011;8310;44.626;11.176;2023-08-21T08:14:58;20.92;;;8.48;;
16401;SDS011;8310;44.626;11.176;2023-08-21T08:17:26;12.68;;;7.32;;
16401;SDS011;8310;44.626;11.176;2023-08-21T08:19:54;12.23;;;8.18;;
16401;SDS011;8310;44.626;11.176;2023-08-21T08:22:22;11.05;;;7.55;;
16401;SDS011;8310;44.626;11.176;2023-08-21T08:27:17;17.48;;;8.52;;
16401;SDS011;8310;44.626;11.176;2023-08-21T08:29:45;10.95;;;7.22;;
16401;SDS011;8310;44.626;11.176;2023-08-21T08:32:12;12.68;;;7.05;;
16401;SDS011;8310;44.626;11.176;2023-08-21T08:37:11;11.10;;;7.22;;
16401;SDS011;8310;44.626;11.176;2023-08-21T08:42:06;11.82;;;7.35;;
16401;SDS011;8310;44.626;11.176;2023-08-21T08:44:35;11.70;;;6.95;;
16401;SDS011;8310;44.626;11.176;2023-08-21T08:47:03;14.73;;;6.43;;
16401;SDS011;8310;44.626;11.176;2023-08-21T08:49:31;9.00;;;6.35;;
16401;SDS011;8310;44.626;11.176;2023-08-21T08:52:01;11.43;;;6.35;;
16401;SDS011;8310;44.626;11.176;2023-08-21T08:54:29;8.20;;;5.78;;
16401;SDS011;8310;44.626;11.176;2023-08-21T08:56:58;9.80;;;6.57;;
16401;SDS011;8310;44.626;11.176;2023-08-21T09:01:56;14.50;;;6.18;;
16401;SDS011;8310;44.626;11.176;2023-08-21T09:04:24;10.30;;;6.13;;
16401;SDS011;8310;44.626;11.176;2023-08-21T09:07:04;8.98;;;6.53;;
16401;SDS011;8310;44.626;11.176;2023-08-21T09:09:37;9.18;;;5.90;;
16401;SDS011;8310;44.626;11.176;2023-08-21T09:12:09;8.07;;;5.55;;
16401;SDS011;8310;44.626;11.176;2023-08-21T09:14:38;7.85;;;6.53;;
16401;SDS011;8310;44.626;11.176;2023-08-21T09:17:06;12.05;;;6.13;;
16401;SDS011;8310;44.626;11.176;2023-08-21T09:19:34;10.27;;;6.20;;
16401;SDS011;8310;44.626;11.176;2023-08-21T09:22:09;10.55;;;5.80;;
16401;SDS011;8310;44.626;11.176;2023-08-21T09:24:38;6.80;;;5.25;;
16401;SDS011;8310;44.626;11.176;2023-08-21T09:27:13;10.88;;;5.75;;
16401;SDS011;8310;44.626;11.176;2023-08-21T09:29:42;11.25;;;4.95;;
16401;SDS011;8310;44.626;11.176;2023-08-21T09:32:10;11.85;;;5.93;;
16401;SDS011;8310;44.626;11.176;2023-08-21T09:34:37;10.70;;;5.25;;
16401;SDS011;8310;44.626;11.176;2023-08-21T09:37:05;6.80;;;5.32;;
16401;SDS011;8310;44.626;11.176;2023-08-21T09:39:36;7.47;;;5.22;;
16401;SDS011;8310;44.626;11.176;2023-08-21T09:42:07;8.15;;;5.20;;
16401;SDS011;8310;44.626;11.176;2023-08-21T09:44:35;8.80;;;5.13;;
16401;SDS011;8310;44.626;11.176;2023-08-21T09:47:04;9.35;;;5.55;;
16401;SDS011;8310;44.626;11.176;2023-08-21T09:49:34;11.63;;;5.20;;
16401;SDS011;8310;44.626;11.176;2023-08-21T09:52:03;12.57;;;4.78;;
16401;SDS011;8310;44.626;11.176;2023-08-21T09:54:33;12.25;;;5.82;;
16401;SDS011;8310;44.626;11.176;2023-08-21T09:57:03;7.18;;;5.80;;
16401;SDS011;8310;44.626;11.176;2023-08-21T09:59:31;10.38;;;5.65;;
16401;SDS011;8310;44.626;11.176;2023-08-21T10:01:59;9.20;;;5.43;;
16401;SDS011;8310;44.626;11.176;2023-08-21T10:04:27;10.43;;;6.90;;
16401;SDS011;8310;44.626;11.176;2023-08-21T10:06:56;7.75;;;5.40;;
16401;SDS011;8310;44.626;11.176;2023-08-21T10:09:24;11.05;;;5.53;;
16401;SDS011;8310;44.626;11.176;2023-08-21T10:11:53;10.63;;;5.10;;
16401;SDS011;8310;44.626;11.176;2023-08-21T10:14:24;6.57;;;5.38;;
16401;SDS011;8310;44.626;11.176;2023-08-21T10:16:52;11.05;;;5.40;;
16401;SDS011;8310;44.626;11.176;2023-08-21T10:19:21;7.80;;;4.72;;
16401;SDS011;8310;44.626;11.176;2023-08-21T10:21:49;11.25;;;4.82;;
16401;SDS011;8310;44.626;11.176;2023-08-21T10:24:27;11.70;;;6.03;;
16401;SDS011;8310;44.626;11.176;2023-08-21T10:26:57;9.35;;;5.30;;
16401;SDS011;8310;44.626;11.176;2023-08-21T10:29:29;34.45;;;11.75;;
16401;SDS011;8310;44.626;11.176;2023-08-21T10:31:58;7.15;;;4.95;;
16401;SDS011;8310;44.626;11.176;2023-08-21T10:34:31;10.20;;;4.30;;
16401;SDS011;8310;44.626;11.176;2023-08-21T10:39:37;7.68;;;4.97;;
16401;SDS011;8310;44.626;11.176;2023-08-21T10:42:08;9.88;;;4.57;;
16401;SDS011;8310;44.626;11.176;2023-08-21T10:44:50;9.23;;;4.78;;
16401;SDS011;8310;44.626;11.176;2023-08-21T10:47:21;25.02;;;4.85;;
16401;SDS011;8310;44.626;11.176;2023-08-21T10:49:50;7.40;;;4.90;;
16401;SDS011;8310;44.626;11.176;2023-08-21T10:52:22;6.03;;;4.43;;
16401;SDS011;8310;44.626;11.176;2023-08-21T10:54:51;10.77;;;4.68;;
16401;SDS011;8310;44.626;11.176;2023-08-21T10:57:19;5.45;;;4.65;;
16401;SDS011;8310;44.626;11.176;2023-08-21T10:59:51;8.98;;;4.35;;
16401;SDS011;8310;44.626;11.176;2023-08-21T11:02:19;6.40;;;4.40;;
16401;SDS011;8310;44.626;11.176;2023-08-21T11:04:48;6.57;;;5.05;;
16401;SDS011;8310;44.626;11.176;2023-08-21T11:07:16;6.78;;;3.90;;
16401;SDS011;8310;44.626;11.176;2023-08-21T11:09:44;8.88;;;4.53;;
16401;SDS011;8310;44.626;11.176;2023-08-21T11:12:12;8.32;;;4.25;;
16401;SDS011;8310;44.626;11.176;2023-08-21T11:14:41;5.32;;;3.90;;
16401;SDS011;8310;44.626;11.176;2023-08-21T11:17:10;7.25;;;4.40;;
16401;SDS011;8310;44.626;11.176;2023-08-21T11:19:39;9.20;;;4.68;;
16401;SDS011;8310;44.626;11.176;2023-08-21T11:22:07;7.93;;;4.50;;
16401;SDS011;8310;44.626;11.176;2023-08-21T11:24:41;5.38;;;4.53;;
16401;SDS011;8310;44.626;11.176;2023-08-21T11:27:10;11.48;;;4.47;;
16401;SDS011;8310;44.626;11.176;2023-08-21T11:29:39;7.25;;;4.43;;
16401;SDS011;8310;44.626;11.176;2023-08-21T11:32:09;9.10;;;4.20;;
16401;SDS011;8310;44.626;11.176;2023-08-21T11:34:42;8.10;;;4.07;;
16401;SDS011;8310;44.626;11.176;2023-08-21T11:37:13;6.15;;;4.60;;
16401;SDS011;8310;44.626;11.176;2023-08-21T11:39:43;9.10;;;4.05;;
16401;SDS011;8310;44.626;11.176;2023-08-21T11:42:12;6.90;;;4.45;;
16401;SDS011;8310;44.626;11.176;2023-08-21T11:44:44;9.38;;;4.05;;
16401;SDS011;8310;44.626;11.176;2023-08-21T11:47:15;10.45;;;4.68;;
16401;SDS011;8310;44.626;11.176;2023-08-21T11:49:44;10.50;;;4.25;;
16401;SDS011;8310;44.626;11.176;2023-08-21T11:52:17;15.50;;;4.40;;
16401;SDS011;8310;44.626;11.176;2023-08-21T11:54:47;7.70;;;4.35;;
16401;SDS011;8310;44.626;11.176;2023-08-21T11:57:15;6.10;;;4.25;;
16401;SDS011;8310;44.626;11.176;2023-08-21T11:59:43;5.97;;;4.32;;
16401;SDS011;8310;44.626;11.176;2023-08-21T12:02:23;6.95;;;4.65;;
16401;SDS011;8310;44.626;11.176;2023-08-21T12:04:52;16.35;;;4.75;;
16401;SDS011;8310;44.626;11.176;2023-08-21T12:07:21;6.35;;;4.43;;
16401;SDS011;8310;44.626;11.176;2023-08-21T12:09:49;9.50;;;4.30;;
16401;SDS011;8310;44.626;11.176;2023-08-21T12:12:17;7.32;;;4.20;;
16401;SDS011;8310;44.626;11.176;2023-08-21T12:14:45;6.20;;;4.15;;
16401;SDS011;8310;44.626;11.176;2023-08-21T12:17:13;7.30;;;4.05;;
16401;SDS011;8310;44.626;11.176;2023-08-21T12:19:42;6.75;;;4.05;;
16401;SDS011;8310;44.626;11.176;2023-08-21T12:22:10;5.20;;;4.38;;
16401;SDS011;8310;44.626;11.176;2023-08-21T12:24:38;6.78;;;3.78;;
16401;SDS011;8310;44.626;11.176;2023-08-21T12:29:33;5.40;;;3.53;;
16401;SDS011;8310;44.626;11.176;2023-08-21T12:32:04;11.25;;;4.10;;
16401;SDS011;8310;44.626;11.176;2023-08-21T12:34:33;7.57;;;3.90;;
16401;SDS011;8310;44.626;11.176;2023-08-21T12:37:02;5.80;;;3.97;;
16401;SDS011;8310;44.626;11.176;2023-08-21T12:39:30;8.25;;;4.30;;
16401;SDS011;8310;44.626;11.176;2023-08-21T12:41:57;5.18;;;3.83;;
16401;SDS011;8310;44.626;11.176;2023-08-21T12:46:52;7.63;;;4.03;;
16401;SDS011;8310;44.626;11.176;2023-08-21T12:49:20;5.95;;;4.00;;
16401;SDS011;8310;44.626;11.176;2023-08-21T12:51:48;7.13;;;3.90;;
16401;SDS011;8310;44.626;11.176;2023-08-21T12:54:18;6.15;;;4.38;;
16401;SDS011;8310;44.626;11.176;2023-08-21T12:56:46;10.38;;;4.05;;
16401;SDS011;8310;44.626;11.176;2023-08-21T12:59:14;4.85;;;4.20;;
16401;SDS011;8310;44.626;11.176;2023-08-21T13:01:43;5.72;;;3.70;;
16401;SDS011;8310;44.626;11.176;2023-08-21T13:06:38;4.85;;;3.65;;
16401;SDS011;8310;44.626;11.176;2023-08-21T13:09:06;9.85;;;4.10;;
16401;SDS011;8310;44.626;11.176;2023-08-21T13:11:35;9.75;;;4.00;;
16401;SDS011;8310;44.626;11.176;2023-08-21T13:14:03;14.60;;;4.07;;
16401;SDS011;8310;44.626;11.176;2023-08-21T13:16:30;5.63;;;3.90;;
16401;SDS011;8310;44.626;11.176;2023-08-21T13:18:58;6.22;;;3.72;;
16401;SDS011;8310;44.626;11.176;2023-08-21T13:21:26;7.25;;;4.55;;
16401;SDS011;8310;44.626;11.176;2023-08-21T13:23:53;8.15;;;4.38;;
16401;SDS011;8310;44.626;11.176;2023-08-21T13:26:22;7.95;;;4.45;;
16401;SDS011;8310;44.626;11.176;2023-08-21T13:28:52;7.15;;;3.92;;
16401;SDS011;8310;44.626;11.176;2023-08-21T13:31:19;7.15;;;4.07;;
16401;SDS011;8310;44.626;11.176;2023-08-21T13:33:47;7.97;;;4.22;;
16401;SDS011;8310;44.626;11.176;2023-08-21T13:36:16;5.50;;;3.88;;
16401;SDS011;8310;44.626;11.176;2023-08-21T13:38:45;7.18;;;4.40;;
16401;SDS011;8310;44.626;11.176;2023-08-21T13:41:13;7.53;;;4.32;;
16401;SDS011;8310;44.626;11.176;2023-08-21T13:43:42;6.82;;;4.32;;
16401;SDS011;8310;44.626;11.176;2023-08-21T13:46:11;8.15;;;4.03;;
16401;SDS011;8310;44.626;11.176;2023-08-21T13:48:39;8.70;;;4.80;;
16401;SDS011;8310;44.626;11.176;2023-08-21T13:51:08;4.80;;;4.25;;
16401;SDS011;8310;44.626;11.176;2023-08-21T13:53:39;8.57;;;3.78;;
16401;SDS011;8310;44.626;11.176;2023-08-21T13:56:07;6.80;;;3.83;;
16401;SDS011;8310;44.626;11.176;2023-08-21T13:58:35;6.95;;;4.00;;
16401;SDS011;8310;44.626;11.176;2023-08-21T14:01:03;9.73;;;4.32;;
16401;SDS011;8310;44.626;11.176;2023-08-21T14:03:33;7.20;;;4.05;;
16401;SDS011;8310;44.626;11.176;2023-08-21T14:06:01;14.98;;;4.40;;
16401;SDS011;8310;44.626;11.176;2023-08-21T14:08:28;9.55;;;4.50;;
16401;SDS011;8310;44.626;11.176;2023-08-21T14:10:57;8.60;;;3.97;;
16401;SDS011;8310;44.626;11.176;2023-08-21T14:13:25;8.38;;;4.18;;
16401;SDS011;8310;44.626;11.176;2023-08-21T14:15:52;6.20;;;4.10;;
16401;SDS011;8310;44.626;11.176;2023-08-21T14:18:20;9.80;;;4.28;;
16401;SDS011;8310;44.626;11.176;2023-08-21T14:20:50;9.18;;;3.90;;
16401;SDS011;8310;44.626;11.176;2023-08-21T14:23:17;8.55;;;4.07;;
16401;SDS011;8310;44.626;11.176;2023-08-21T14:25:45;7.65;;;3.95;;
16401;SDS011;8310;44.626;11.176;2023-08-21T14:28:12;8.48;;;4.03;;
16401;SDS011;8310;44.626;11.176;2023-08-21T14:30:40;9.07;;;4.10;;
16401;SDS011;8310;44.626;11.176;2023-08-21T14:33:08;7.60;;;4.53;;
16401;SDS011;8310;44.626;11.176;2023-08-21T14:35:35;9.63;;;4.13;;
16401;SDS011;8310;44.626;11.176;2023-08-21T14:40:33;10.23;;;4.15;;
16401;SDS011;8310;44.626;11.176;2023-08-21T14:43:00;7.10;;;4.47;;
16401;SDS011;8310;44.626;11.176;2023-08-21T14:45:27;6.60;;;3.85;;
16401;SDS011;8310;44.626;11.176;2023-08-21T14:47:55;6.30;;;3.92;;
16401;SDS011;8310;44.626;11.176;2023-08-21T14:50:22;9.88;;;4.07;;
16401;SDS011;8310;44.626;11.176;2023-08-21T14:52:50;6.53;;;3.63;;
16401;SDS011;8310;44.626;11.176;2023-08-21T14:55:19;6.88;;;3.90;;
16401;SDS011;8310;44.626;11.176;2023-08-21T14:57:50;9.43;;;4.90;;
16401;SDS011;8310;44.626;11.176;2023-08-21T15:00:21;5.53;;;3.80;;
16401;SDS011;8310;44.626;11.176;2023-08-21T15:02:48;9.82;;;5.25;;
16401;SDS011;8310;44.626;11.176;2023-08-21T15:05:16;10.57;;;4.03;;
16401;SDS011;8310;44.626;11.176;2023-08-21T15:07:43;4.68;;;3.78;;
16401;SDS011;8310;44.626;11.176;2023-08-21T15:12:40;4.55;;;3.60;;
16401;SDS011;8310;44.626;11.176;2023-08-21T15:15:08;10.43;;;4.43;;
16401;SDS011;8310;44.626;11.176;2023-08-21T15:17:37;7.63;;;3.67;;
16401;SDS011;8310;44.626;11.176;2023-08-21T15:20:05;6.95;;;3.72;;
16401;SDS011;8310;44.626;11.176;2023-08-21T15:22:34;10.63;;;4.78;;
16401;SDS011;8310;44.626;11.176;2023-08-21T15:25:01;7.43;;;3.60;;